KBIL/BIL METAR and TAF weather

Enter ICAO airport designator
Station Type Date Time Source
KBIL METAR 2021/05/10 00:53 UTC NOAA

KBIL 100053Z 22008KT 10SM FEW040 BKN060 BKN100 06/02 A3013 RMK AO2 TSE37 SLP214 CB DSNT S-NW SHRA DSNT SE-S T00610017


Station Type Date Time Source
KBIL Decoded METAR 2021/05/10 00:53 UTC NOAA

LOGAN INTERNATIONAL AIRPORT, MT, United States (KBIL) 45-49N 108-33W 1091M
May 09, 2021 - 08:53 PM EDT / 2021.05.10 0053 UTC
Wind: from the SW (220 degrees) at 9 MPH (8 KT):0
Visibility: 10 mile(s):0
Sky conditions: mostly cloudy
Weather: Cumulonimbus clouds observed
Temperature: 43.0 F (6.1 C)
Dew Point: 35.1 F (1.7 C)
Relative Humidity: 73%
Pressure (altimeter): 30.13 in. Hg (1020 hPa)
ob: KBIL 100053Z 22008KT 10SM FEW040 BKN060 BKN100 06/02 A3013 RMK AO2 TSE37 SLP214 CB DSNT S-NW SHRA DSNT SE-S T00610017
cycle: 1

Station Type Date Time Source
KBIL TAF 2021/05/09 18:40 UTC NOAA

TAF KBIL 091738Z 0918/1018 31013KT P6SM VCSH SCT035 BKN050
FM092100 04011KT P6SM -SHRA SCT025 BKN035
FM100300 08007KT P6SM VCSH BKN025
FM100800 VRB05KT P6SM BKN015
FM101100 VRB05KT P6SM VCFG SCT002
FM101500 VRB05KT P6SM SCT025 BKN040

Example: see airport list